Time;durP1;ratioP1;P1;durP2;ratioP2;P2;SDS_P1;SDS_P2;PMS_P1;PMS_P2;Temp;Humidity;BMP_temperature;BMP_pressure;BME280_temperature;BME280_humidity;BME280_pressure;Samples;Min_cycle;Max_cycle;Signal;HPM_P1;HPM_P2
2022/06/02 00:00:40;;;;;;;;;;;9.30;99.90;;;;;;5054885;28;20388;-68
2022/06/02 00:03:13;;;;;;;;;;;9.20;99.90;;;;;;5006288;28;19936;-68
2022/06/02 00:05:51;;;;;;;;;;;9.20;99.90;;;;;;5007738;28;19925;-68
2022/06/02 00:08:23;;;;;;;;;;;9.20;99.90;;;;;;5033616;28;19951;-68
2022/06/02 00:10:53;;;;;;;;;;;9.20;99.90;;;;;;4991912;28;19926;-69
2022/06/02 00:13:21;;;;;;;;;;;9.10;99.90;;;;;;5018693;28;19926;-68
2022/06/02 00:15:52;;;;;;;;;;;9.10;99.90;;;;;;5005850;28;19925;-68
2022/06/02 00:18:22;;;;;;;;;;;9.00;99.90;;;;;;5027217;28;19929;-68
2022/06/02 00:20:51;;;;;;;;;;;9.00;99.90;;;;;;5032410;28;19923;-69
2022/06/02 00:23:24;;;;;;;;;;;9.00;99.90;;;;;;5026106;28;20376;-69
2022/06/02 00:25:55;;;;;;;;;;;8.90;99.90;;;;;;5000637;28;19925;-68
2022/06/02 00:28:27;;;;;;;;;;;8.70;99.90;;;;;;5025539;28;19932;-69
2022/06/02 00:30:57;;;;;;;;;;;8.50;99.90;;;;;;4992543;28;19948;-69
2022/06/02 00:33:28;;;;;;;;;;;8.40;99.90;;;;;;5009616;28;20009;-69
2022/06/02 00:35:57;;;;;;;;;;;8.30;99.90;;;;;;5012046;28;19943;-69
2022/06/02 00:38:28;;;;;;;;;;;8.40;99.90;;;;;;5007051;28;19938;-69
2022/06/02 00:40:57;;;;;;;;;;;8.30;99.90;;;;;;5000522;28;20008;-69
2022/06/02 00:43:33;;;;;;;;;;;8.30;99.90;;;;;;5021778;28;20416;-70
2022/06/02 00:46:05;;;;;;;;;;;8.30;99.90;;;;;;4999840;28;19954;-69
2022/06/02 00:48:39;;;;;;;;;;;8.40;99.90;;;;;;5011533;28;19926;-69
2022/06/02 00:51:07;;;;;;;;;;;8.50;99.90;;;;;;5030951;28;19928;-69
2022/06/02 00:53:42;;;;;;;;;;;8.50;99.90;;;;;;5010542;28;20404;-69
2022/06/02 00:59:13;;;;;;;;;;;8.50;99.90;;;;;;5005203;28;20014;-68
2022/06/02 01:01:40;;;;;;;;;;;8.50;99.90;;;;;;5032132;28;19930;-69
2022/06/02 01:04:11;;;;;;;;;;;8.50;99.90;;;;;;5021771;28;19948;-69
2022/06/02 01:06:48;;;;;;;;;;;8.50;99.90;;;;;;5013373;28;19925;-69
2022/06/02 01:09:20;;;;;;;;;;;8.50;99.90;;;;;;5007208;28;19926;-69
2022/06/02 01:11:55;;;;;;;;;;;8.40;99.90;;;;;;5009941;28;19932;-69
2022/06/02 01:14:29;;;;;;;;;;;8.40;99.90;;;;;;5010951;28;19994;-69
2022/06/02 01:17:01;;;;;;;;;;;8.30;99.90;;;;;;5002057;28;19932;-69
2022/06/02 01:19:46;;;;;;;;;;;8.20;99.90;;;;;;5011044;28;20379;-68
2022/06/02 01:22:19;;;;;;;;;;;8.20;99.90;;;;;;5002035;28;20365;-68
2022/06/02 01:24:58;;;;;;;;;;;8.20;99.90;;;;;;5007178;28;19926;-68
2022/06/02 01:27:49;;;;;;;;;;;8.20;99.90;;;;;;5009187;28;19947;-68
2022/06/02 01:30:29;;;;;;;;;;;8.20;99.90;;;;;;5019782;28;19926;-69
2022/06/02 01:33:03;;;;;;;;;;;8.20;99.90;;;;;;5004077;28;19926;-69
2022/06/02 01:35:34;;;;;;;;;;;8.20;99.90;;;;;;5017175;28;19925;-68
2022/06/02 01:38:05;;;;;;;;;;;8.20;99.90;;;;;;5022658;28;19925;-69
2022/06/02 01:40:34;;;;;;;;;;;8.20;99.90;;;;;;5017687;28;19924;-68
2022/06/02 01:43:04;;;;;;;;;;;8.10;99.90;;;;;;5034511;28;19924;-69
2022/06/02 01:45:37;;;;;;;;;;;8.00;99.90;;;;;;4999126;28;19926;-69
2022/06/02 01:48:10;;;;;;;;;;;8.00;99.90;;;;;;5002929;28;19925;-69
2022/06/02 01:50:39;;;;;;;;;;;8.10;99.90;;;;;;5034323;28;19965;-69
2022/06/02 01:53:14;;;;;;;;;;;8.10;99.90;;;;;;5010885;28;19925;-68
2022/06/02 01:55:58;;;;;;;;;;;8.00;99.90;;;;;;5009994;28;19928;-68
2022/06/02 01:58:34;;;;;;;;;;;8.00;99.90;;;;;;4994907;28;19930;-69
2022/06/02 02:01:05;;;;;;;;;;;7.90;99.90;;;;;;4997934;28;19925;-68
2022/06/02 02:03:39;;;;;;;;;;;7.90;99.90;;;;;;5017722;28;20424;-68
2022/06/02 02:06:09;;;;;;;;;;;7.80;99.90;;;;;;5006803;28;19925;-68
2022/06/02 02:08:46;;;;;;;;;;;7.80;99.90;;;;;;5016823;28;19940;-68
2022/06/02 02:11:26;;;;;;;;;;;7.80;99.90;;;;;;5010448;28;19932;-69
2022/06/02 02:13:56;;;;;;;;;;;7.80;99.90;;;;;;5003355;28;19926;-68
2022/06/02 02:16:29;;;;;;;;;;;7.80;99.90;;;;;;5005868;28;19932;-69
2022/06/02 02:19:03;;;;;;;;;;;7.80;99.90;;;;;;5001566;28;19978;-69
2022/06/02 02:21:33;;;;;;;;;;;7.80;99.90;;;;;;5001256;28;19935;-69
2022/06/02 02:24:04;;;;;;;;;;;7.90;99.90;;;;;;5016681;28;20409;-69
2022/06/02 02:26:34;;;;;;;;;;;7.80;99.90;;;;;;5011039;28;19934;-69
2022/06/02 02:29:05;;;;;;;;;;;7.80;99.90;;;;;;5013096;28;19930;-69
2022/06/02 02:31:39;;;;;;;;;;;7.70;99.90;;;;;;5002592;28;19930;-69
2022/06/02 02:34:11;;;;;;;;;;;7.50;99.90;;;;;;5009958;28;19930;-68
2022/06/02 02:36:40;;;;;;;;;;;7.50;99.90;;;;;;5006408;28;19930;-68
2022/06/02 02:39:09;;;;;;;;;;;7.40;99.90;;;;;;5003459;28;19925;-68
2022/06/02 02:41:40;;;;;;;;;;;7.50;99.90;;;;;;5024087;28;19941;-68
2022/06/02 02:44:09;;;;;;;;;;;7.60;99.90;;;;;;5008359;28;19931;-67
2022/06/02 02:46:38;;;;;;;;;;;7.70;99.90;;;;;;5010364;28;20039;-69
2022/06/02 02:49:11;;;;;;;;;;;7.70;99.90;;;;;;4999175;28;20020;-68
2022/06/02 02:51:52;;;;;;;;;;;7.70;99.90;;;;;;5010059;28;19936;-68
2022/06/02 02:54:22;;;;;;;;;;;7.70;99.90;;;;;;5000699;28;19932;-68
2022/06/02 02:56:53;;;;;;;;;;;7.70;99.90;;;;;;5018414;28;19925;-68
2022/06/02 02:59:23;;;;;;;;;;;7.60;99.90;;;;;;5033988;28;20022;-68
2022/06/02 03:01:54;;;;;;;;;;;7.50;99.90;;;;;;5014400;28;20435;-67
2022/06/02 03:04:39;;;;;;;;;;;7.50;99.90;;;;;;5019712;28;19926;-68
2022/06/02 03:07:07;;;;;;;;;;;7.50;99.90;;;;;;5050342;28;20327;-68
2022/06/02 03:09:39;;;;;;;;;;;7.40;99.90;;;;;;5008250;28;19979;-68
2022/06/02 03:12:11;;;;;;;;;;;7.40;99.90;;;;;;5026394;28;19942;-68
2022/06/02 03:14:56;;;;;;;;;;;7.40;99.90;;;;;;5015860;28;19947;-68
2022/06/02 03:17:28;;;;;;;;;;;7.40;99.90;;;;;;5011398;28;20309;-68
2022/06/02 03:19:58;;;;;;;;;;;7.40;99.90;;;;;;5008175;28;19932;-68
2022/06/02 03:22:33;;;;;;;;;;;7.40;99.90;;;;;;5003547;28;19959;-68
2022/06/02 03:25:05;;;;;;;;;;;7.40;99.90;;;;;;5013269;28;19931;-67
2022/06/02 03:27:50;;;;;;;;;;;7.40;99.90;;;;;;5043235;28;20389;-68
2022/06/02 03:30:19;;;;;;;;;;;7.40;99.90;;;;;;5008807;28;19932;-68
2022/06/02 03:32:58;;;;;;;;;;;7.30;99.90;;;;;;5018670;28;19925;-68
2022/06/02 03:35:27;;;;;;;;;;;7.30;99.90;;;;;;5017806;28;19926;-69
2022/06/02 03:38:00;;;;;;;;;;;7.40;99.90;;;;;;5016888;28;20007;-69
2022/06/02 03:40:31;;;;;;;;;;;7.40;99.90;;;;;;5013827;28;19986;-68
2022/06/02 03:43:04;;;;;;;;;;;7.40;99.90;;;;;;5031505;28;19925;-68
2022/06/02 03:45:37;;;;;;;;;;;7.40;99.90;;;;;;5012851;28;19932;-68
2022/06/02 03:48:16;;;;;;;;;;;7.40;99.90;;;;;;5018325;28;19937;-68
2022/06/02 03:50:58;;;;;;;;;;;7.40;99.90;;;;;;5010482;28;19925;-68
2022/06/02 03:53:36;;;;;;;;;;;7.40;99.90;;;;;;5017900;28;19929;-68
2022/06/02 03:56:09;;;;;;;;;;;7.30;99.90;;;;;;5010904;28;19933;-68
2022/06/02 03:58:54;;;;;;;;;;;7.30;99.90;;;;;;4998625;28;20016;-68
2022/06/02 04:01:25;;;;;;;;;;;7.30;99.90;;;;;;5022657;28;19930;-69
2022/06/02 04:03:59;;;;;;;;;;;7.40;99.90;;;;;;5015628;28;19932;-69
2022/06/02 04:06:33;;;;;;;;;;;7.30;99.90;;;;;;5014999;28;19926;-69
2022/06/02 04:09:11;;;;;;;;;;;7.20;99.90;;;;;;5003944;28;19932;-68
2022/06/02 04:14:38;;;;;;;;;;;7.20;99.90;;;;;;5009861;28;19933;-69
2022/06/02 04:17:09;;;;;;;;;;;7.30;99.90;;;;;;5008289;28;19941;-68
2022/06/02 04:22:42;;;;;;;;;;;7.50;99.90;;;;;;5029366;28;19929;-68
2022/06/02 04:25:15;;;;;;;;;;;7.60;99.90;;;;;;5014264;28;19925;-68
2022/06/02 04:27:47;;;;;;;;;;;7.60;99.90;;;;;;5002924;28;19926;-69
2022/06/02 04:30:17;;;;;;;;;;;7.70;99.90;;;;;;5005999;28;19923;-68
2022/06/02 04:32:46;;;;;;;;;;;7.70;99.90;;;;;;5046581;28;19932;-68
2022/06/02 04:35:19;;;;;;;;;;;7.80;99.90;;;;;;5048341;28;19979;-67
2022/06/02 04:37:50;;;;;;;;;;;7.80;99.90;;;;;;5006917;28;20017;-69
2022/06/02 04:40:27;;;;;;;;;;;7.80;99.90;;;;;;5034207;28;19947;-68
2022/06/02 04:42:57;;;;;;;;;;;7.70;99.90;;;;;;5027343;28;19932;-68
2022/06/02 04:45:29;;;;;;;;;;;7.60;99.90;;;;;;5052019;28;19926;-68
2022/06/02 04:47:59;;;;;;;;;;;7.70;99.90;;;;;;5013725;28;19935;-71
2022/06/02 04:50:28;;;;;;;;;;;7.80;99.90;;;;;;5009033;28;19932;-71
2022/06/02 04:53:00;;;;;;;;;;;7.90;99.90;;;;;;5009571;28;19932;-70
2022/06/02 04:55:32;;;;;;;;;;;8.00;99.90;;;;;;5008791;28;20004;-70
2022/06/02 04:58:01;;;;;;;;;;;8.10;99.90;;;;;;5014843;28;19932;-70
2022/06/02 05:00:35;;;;;;;;;;;8.10;99.90;;;;;;5025450;28;19925;-70
2022/06/02 05:03:09;;;;;;;;;;;8.40;99.90;;;;;;5015290;28;19971;-70
2022/06/02 05:05:38;;;;;;;;;;;8.40;99.90;;;;;;4997624;28;19960;-70
2022/06/02 05:08:15;;;;;;;;;;;8.60;99.90;;;;;;5006774;28;20417;-69
2022/06/02 05:10:47;;;;;;;;;;;8.60;99.90;;;;;;5017194;28;19932;-70
2022/06/02 05:13:19;;;;;;;;;;;8.70;99.90;;;;;;5007011;28;20291;-70
2022/06/02 05:16:05;;;;;;;;;;;8.80;99.90;;;;;;4996522;28;19926;-71
2022/06/02 05:18:41;;;;;;;;;;;8.90;99.90;;;;;;5009927;28;20380;-70
2022/06/02 05:21:15;;;;;;;;;;;9.10;99.90;;;;;;5007367;28;19925;-70
2022/06/02 05:24:00;;;;;;;;;;;9.20;99.90;;;;;;4999421;28;19934;-70
2022/06/02 05:26:39;;;;;;;;;;;9.40;99.90;;;;;;4990634;28;19941;-70
2022/06/02 05:29:24;;;;;;;;;;;9.70;99.90;;;;;;4986951;28;19995;-70
2022/06/02 05:32:09;;;;;;;;;;;9.90;99.90;;;;;;4986822;28;20501;-69
2022/06/02 05:34:56;;;;;;;;;;;10.00;99.90;;;;;;4991487;28;19925;-70
2022/06/02 05:37:38;;;;;;;;;;;10.10;99.90;;;;;;4995888;28;19953;-69
2022/06/02 05:40:13;;;;;;;;;;;10.20;99.90;;;;;;4990307;28;20384;-71
2022/06/02 05:42:46;;;;;;;;;;;10.30;99.90;;;;;;4991713;28;19939;-71
2022/06/02 05:45:24;;;;;;;;;;;10.50;99.90;;;;;;4988969;28;19944;-70
2022/06/02 05:47:57;;;;;;;;;;;10.60;99.90;;;;;;4988986;28;19933;-71
2022/06/02 05:50:30;;;;;;;;;;;10.80;99.90;;;;;;4989870;28;19934;-71
2022/06/02 05:53:01;;;;;;;;;;;11.00;99.90;;;;;;4987488;28;20473;-71
2022/06/02 05:55:46;;;;;;;;;;;11.10;99.90;;;;;;4989488;28;19988;-70
2022/06/02 05:58:40;;;;;;;;;;;12.00;99.90;;;;;;4986749;28;19941;-71
2022/06/02 06:01:13;;;;;;;;;;;14.70;99.90;;;;;;4941405;28;19929;-69
2022/06/02 06:04:01;;;;;;;;;;;17.80;99.90;;;;;;4988949;28;20008;-69
2022/06/02 06:06:31;;;;;;;;;;;19.50;85.70;;;;;;4988213;28;19960;-69
2022/06/02 06:09:09;;;;;;;;;;;20.80;67.70;;;;;;4987324;28;20339;-71
2022/06/02 06:11:57;;;;;;;;;;;22.00;53.00;;;;;;4995071;28;20385;-71
2022/06/02 06:14:30;;;;;;;;;;;22.40;45.00;;;;;;4999360;28;19971;-70
2022/06/02 06:17:04;;;;;;;;;;;23.00;39.70;;;;;;4994739;28;20497;-71
2022/06/02 06:19:49;;;;;;;;;;;19.90;42.60;;;;;;5000711;28;19945;-70
2022/06/02 06:22:25;;;;;;;;;;;18.80;59.10;;;;;;4994654;28;19930;-71
2022/06/02 06:25:09;;;;;;;;;;;19.50;55.30;;;;;;4987863;28;20080;-71
2022/06/02 06:27:41;;;;;;;;;;;21.00;47.40;;;;;;5009972;28;19960;-71
2022/06/02 06:30:10;;;;;;;;;;;20.90;42.80;;;;;;5004442;28;19929;-70
2022/06/02 06:32:41;;;;;;;;;;;19.80;49.10;;;;;;4998013;28;20430;-70
2022/06/02 06:35:15;;;;;;;;;;;19.40;49.40;;;;;;4991583;28;20036;-70
2022/06/02 06:37:48;;;;;;;;;;;18.80;51.10;;;;;;5006990;28;19994;-72
2022/06/02 06:40:20;;;;;;;;;;;17.70;58.60;;;;;;4996106;28;20024;-70
2022/06/02 06:42:54;;;;;;;;;;;18.20;60.00;;;;;;5002471;28;20029;-69
2022/06/02 06:45:26;;;;;;;;;;;19.00;56.20;;;;;;4988475;28;19926;-69
2022/06/02 06:47:57;;;;;;;;;;;19.50;53.60;;;;;;5002077;28;19932;-70
2022/06/02 06:50:26;;;;;;;;;;;20.30;49.50;;;;;;4985845;28;20434;-68
2022/06/02 06:53:04;;;;;;;;;;;18.90;54.00;;;;;;4989321;28;19940;-69
2022/06/02 06:55:49;;;;;;;;;;;18.50;57.80;;;;;;4999801;28;20428;-69
2022/06/02 06:58:28;;;;;;;;;;;18.70;53.90;;;;;;4999447;28;20044;-68
2022/06/02 07:00:59;;;;;;;;;;;19.50;53.10;;;;;;4996880;28;19979;-69
2022/06/02 07:03:33;;;;;;;;;;;20.70;49.10;;;;;;5001530;28;19948;-69
2022/06/02 07:06:03;;;;;;;;;;;19.10;48.90;;;;;;4995667;28;19951;-68
2022/06/02 07:08:32;;;;;;;;;;;18.00;54.80;;;;;;4996526;28;19930;-68
2022/06/02 07:11:02;;;;;;;;;;;18.10;56.10;;;;;;4998600;28;19948;-67
2022/06/02 07:13:30;;;;;;;;;;;18.10;58.30;;;;;;4988688;28;19926;-68
2022/06/02 07:16:00;;;;;;;;;;;18.40;53.70;;;;;;5004555;28;20009;-68
2022/06/02 07:18:31;;;;;;;;;;;17.90;55.50;;;;;;4993853;28;19993;-68
2022/06/02 07:21:01;;;;;;;;;;;19.30;51.30;;;;;;5004382;28;19941;-69
2022/06/02 07:23:42;;;;;;;;;;;21.30;45.50;;;;;;4994432;28;19929;-69
2022/06/02 07:26:14;;;;;;;;;;;21.40;40.00;;;;;;4995687;28;20455;-70
2022/06/02 07:28:47;;;;;;;;;;;19.20;44.90;;;;;;4995974;28;19925;-69
2022/06/02 07:31:21;;;;;;;;;;;19.80;47.00;;;;;;5008928;28;20400;-69
2022/06/02 07:33:56;;;;;;;;;;;19.50;46.30;;;;;;4995131;28;19983;-68
2022/06/02 07:36:32;;;;;;;;;;;18.50;49.00;;;;;;4995803;28;19930;-68
2022/06/02 07:39:17;;;;;;;;;;;18.20;49.50;;;;;;4996151;28;20464;-67
2022/06/02 07:41:54;;;;;;;;;;;17.40;55.80;;;;;;5004222;28;20403;-67
2022/06/02 07:44:29;;;;;;;;;;;17.10;62.60;;;;;;5008557;28;19948;-67
2022/06/02 07:47:02;;;;;;;;;;;18.10;55.20;;;;;;4998275;28;20059;-66
2022/06/02 07:49:44;;;;;;;;;;;18.40;52.40;;;;;;4996426;28;19926;-67
2022/06/02 07:52:18;;;;;;;;;;;18.90;46.80;;;;;;4996992;28;19932;-66
2022/06/02 07:54:50;;;;;;;;;;;18.20;51.40;;;;;;4999118;28;19926;-68
2022/06/02 07:57:20;;;;;;;;;;;19.90;51.30;;;;;;4989996;28;19977;-67
2022/06/02 07:59:56;;;;;;;;;;;19.90;42.00;;;;;;4996643;28;19943;-67
2022/06/02 08:02:34;;;;;;;;;;;17.60;54.50;;;;;;5007547;28;19931;-66
2022/06/02 08:05:03;;;;;;;;;;;16.30;63.80;;;;;;4991861;28;19938;-67
2022/06/02 08:07:35;;;;;;;;;;;16.00;71.90;;;;;;4994106;28;20028;-67
2022/06/02 08:10:04;;;;;;;;;;;17.70;64.90;;;;;;4999017;28;20399;-67
2022/06/02 08:12:35;;;;;;;;;;;17.40;59.00;;;;;;5001327;28;20455;-68
2022/06/02 08:15:14;;;;;;;;;;;17.00;59.50;;;;;;5002764;28;19951;-70
2022/06/02 08:17:44;;;;;;;;;;;16.40;64.30;;;;;;5007424;28;19930;-70
2022/06/02 08:20:19;;;;;;;;;;;17.50;64.70;;;;;;5001113;28;19926;-70
2022/06/02 08:22:53;;;;;;;;;;;19.30;52.20;;;;;;4998228;28;19936;-69
2022/06/02 08:25:22;;;;;;;;;;;18.90;48.30;;;;;;5014337;28;20003;-69
2022/06/02 08:28:08;;;;;;;;;;;17.90;50.50;;;;;;4997526;28;19933;-71
2022/06/02 08:30:40;;;;;;;;;;;16.90;54.60;;;;;;5005107;28;19929;-70
2022/06/02 08:33:11;;;;;;;;;;;16.40;61.70;;;;;;5001515;28;19926;-69
2022/06/02 08:35:42;;;;;;;;;;;17.00;61.60;;;;;;5002531;28;20009;-69
2022/06/02 08:38:20;;;;;;;;;;;18.20;57.00;;;;;;4996023;28;19926;-70
2022/06/02 08:41:01;;;;;;;;;;;19.00;51.60;;;;;;4997007;28;19930;-69
2022/06/02 08:43:40;;;;;;;;;;;17.00;57.40;;;;;;4994992;28;19929;-70
2022/06/02 08:46:21;;;;;;;;;;;16.30;59.00;;;;;;4995909;28;19926;-69
2022/06/02 08:49:01;;;;;;;;;;;16.90;58.80;;;;;;5002574;28;20032;-69
2022/06/02 08:51:44;;;;;;;;;;;16.00;65.60;;;;;;5008873;28;19939;-68
2022/06/02 08:54:35;;;;;;;;;;;15.80;69.60;;;;;;5001988;28;20303;-69
2022/06/02 08:57:20;;;;;;;;;;;15.80;68.00;;;;;;4997712;28;19929;-69
2022/06/02 09:00:11;;;;;;;;;;;15.90;70.40;;;;;;5009672;28;19925;-69
2022/06/02 09:02:45;;;;;;;;;;;16.90;64.40;;;;;;5002393;28;20419;-70
2022/06/02 09:05:35;;;;;;;;;;;18.00;53.10;;;;;;5006780;28;19932;-70
2022/06/02 09:08:12;;;;;;;;;;;19.60;46.20;;;;;;5014742;28;19925;-70
2022/06/02 09:10:45;;;;;;;;;;;19.30;42.90;;;;;;5003984;28;19936;-70
2022/06/02 09:13:22;;;;;;;;;;;18.50;43.60;;;;;;4993190;28;19926;-70
2022/06/02 09:15:57;;;;;;;;;;;18.50;45.60;;;;;;5004031;28;20392;-70
2022/06/02 09:18:44;;;;;;;;;;;19.10;44.10;;;;;;4993927;28;20395;-70
2022/06/02 09:21:21;;;;;;;;;;;19.50;42.30;;;;;;5006802;28;20008;-71
2022/06/02 09:23:50;;;;;;;;;;;18.50;42.60;;;;;;5010938;28;19971;-70
2022/06/02 09:26:29;;;;;;;;;;;17.80;45.60;;;;;;5013206;28;20012;-69
2022/06/02 09:29:04;;;;;;;;;;;17.60;44.20;;;;;;5002101;28;19936;-70
2022/06/02 09:31:38;;;;;;;;;;;19.50;39.60;;;;;;4996236;28;19926;-71
2022/06/02 09:34:22;;;;;;;;;;;20.80;33.50;;;;;;5003716;28;19936;-72
2022/06/02 09:37:04;;;;;;;;;;;20.50;32.30;;;;;;4997074;28;19932;-70
2022/06/02 09:39:39;;;;;;;;;;;18.70;36.30;;;;;;5000405;28;19938;-70
2022/06/02 09:42:21;;;;;;;;;;;18.20;39.10;;;;;;5004620;28;19936;-70
2022/06/02 09:44:54;;;;;;;;;;;18.70;39.40;;;;;;5001500;28;20020;-70
2022/06/02 09:47:30;;;;;;;;;;;19.80;35.80;;;;;;5000832;28;20395;-71
2022/06/02 09:50:14;;;;;;;;;;;19.10;38.70;;;;;;5000912;28;19929;-70
2022/06/02 09:52:48;;;;;;;;;;;19.00;38.80;;;;;;5023183;28;19937;-68
2022/06/02 09:55:24;;;;;;;;;;;19.50;37.30;;;;;;4997639;28;19926;-68
2022/06/02 09:57:59;;;;;;;;;;;20.70;31.50;;;;;;5001907;28;20030;-70
2022/06/02 10:00:31;;;;;;;;;;;22.40;29.00;;;;;;4999772;28;20027;-70
2022/06/02 10:03:05;;;;;;;;;;;22.10;28.60;;;;;;4991547;28;19941;-68
2022/06/02 10:05:44;;;;;;;;;;;20.10;29.00;;;;;;4996953;28;20040;-69
2022/06/02 10:08:17;;;;;;;;;;;18.40;32.60;;;;;;4994756;28;19926;-68
2022/06/02 10:10:51;;;;;;;;;;;18.20;35.50;;;;;;4993264;28;20410;-68
2022/06/02 10:13:36;;;;;;;;;;;17.80;36.50;;;;;;4994701;28;20041;-69
2022/06/02 10:16:16;;;;;;;;;;;17.30;37.90;;;;;;4999119;28;19926;-68
2022/06/02 10:18:54;;;;;;;;;;;17.00;39.20;;;;;;5000835;28;19930;-69
2022/06/02 10:21:26;;;;;;;;;;;17.60;39.70;;;;;;5003342;28;20024;-69
2022/06/02 10:24:14;;;;;;;;;;;17.60;38.80;;;;;;4994434;28;19930;-70
2022/06/02 10:26:53;;;;;;;;;;;17.00;40.40;;;;;;4996390;28;19926;-69
2022/06/02 10:29:39;;;;;;;;;;;17.70;39.50;;;;;;4992181;28;19945;-71
2022/06/02 10:32:15;;;;;;;;;;;17.50;37.70;;;;;;4993098;28;19937;-70
2022/06/02 10:35:01;;;;;;;;;;;17.30;41.90;;;;;;5008778;28;20051;-70
2022/06/02 10:37:47;;;;;;;;;;;17.30;40.50;;;;;;5001440;28;19933;-70
2022/06/02 10:40:15;;;;;;;;;;;17.20;43.00;;;;;;4991828;28;19926;-69
2022/06/02 10:42:57;;;;;;;;;;;17.00;43.30;;;;;;4993097;28;19937;-71
2022/06/02 10:45:39;;;;;;;;;;;17.00;41.40;;;;;;4993748;28;20016;-71
2022/06/02 10:48:25;;;;;;;;;;;17.30;42.40;;;;;;4992909;28;19926;-70
2022/06/02 10:51:03;;;;;;;;;;;17.00;39.20;;;;;;4997762;28;19926;-70
2022/06/02 10:53:47;;;;;;;;;;;17.40;39.00;;;;;;4995684;28;19925;-70
2022/06/02 10:56:29;;;;;;;;;;;18.10;36.80;;;;;;4984359;28;20062;-70
2022/06/02 10:59:17;;;;;;;;;;;18.50;35.80;;;;;;4994750;28;20016;-70
2022/06/02 11:02:19;;;;;;;;;;;18.70;34.60;;;;;;4992821;28;19934;-70
2022/06/02 11:05:06;;;;;;;;;;;18.00;36.60;;;;;;4998051;28;20012;-70
2022/06/02 11:07:51;;;;;;;;;;;18.10;38.00;;;;;;4996211;28;19937;-72
2022/06/02 11:10:25;;;;;;;;;;;18.10;38.60;;;;;;4987480;28;19926;-70
2022/06/02 11:13:08;;;;;;;;;;;18.20;36.80;;;;;;5000733;28;20016;-70
2022/06/02 11:15:52;;;;;;;;;;;18.00;37.10;;;;;;5009769;28;20025;-70
2022/06/02 11:18:31;;;;;;;;;;;18.30;36.20;;;;;;4992747;28;21257;-71
2022/06/02 11:21:16;;;;;;;;;;;18.20;35.10;;;;;;5004813;28;19929;-70
2022/06/02 11:23:59;;;;;;;;;;;18.40;36.70;;;;;;4993195;28;20025;-70
2022/06/02 11:26:40;;;;;;;;;;;18.20;38.10;;;;;;4988773;28;20013;-70
2022/06/02 11:29:25;;;;;;;;;;;18.00;38.00;;;;;;4990191;28;20338;-70
2022/06/02 11:32:04;;;;;;;;;;;18.00;39.80;;;;;;4996512;28;19925;-69
2022/06/02 11:34:40;;;;;;;;;;;18.90;35.90;;;;;;5008565;28;19926;-70
2022/06/02 11:37:31;;;;;;;;;;;18.00;36.00;;;;;;5001887;28;20079;-70
2022/06/02 11:40:09;;;;;;;;;;;17.80;38.00;;;;;;5001896;28;19932;-69
2022/06/02 11:42:55;;;;;;;;;;;18.30;35.70;;;;;;5004990;28;19925;-70
2022/06/02 11:45:33;;;;;;;;;;;18.30;34.30;;;;;;5008383;28;20022;-70
2022/06/02 11:48:20;;;;;;;;;;;19.00;35.70;;;;;;4997843;28;20012;-69
2022/06/02 11:51:06;;;;;;;;;;;18.90;32.70;;;;;;5002754;28;20410;-70
2022/06/02 11:53:43;;;;;;;;;;;19.30;31.70;;;;;;4991555;28;20024;-67
2022/06/02 11:56:14;;;;;;;;;;;18.80;35.20;;;;;;4996061;28;20017;-67
2022/06/02 11:58:51;;;;;;;;;;;19.10;33.70;;;;;;4992147;28;20022;-67
2022/06/02 12:01:42;;;;;;;;;;;19.40;35.20;;;;;;4989899;28;21249;-67
2022/06/02 12:04:29;;;;;;;;;;;18.30;33.90;;;;;;5002644;28;19926;-67
2022/06/02 12:07:20;;;;;;;;;;;18.00;33.10;;;;;;5005996;28;19929;-67
2022/06/02 12:09:54;;;;;;;;;;;18.30;35.30;;;;;;4999920;28;20015;-68
2022/06/02 12:12:41;;;;;;;;;;;18.40;35.10;;;;;;5009292;28;19989;-68
2022/06/02 12:15:15;;;;;;;;;;;18.40;33.90;;;;;;5003901;28;19932;-66
2022/06/02 12:17:56;;;;;;;;;;;18.80;34.60;;;;;;5010008;28;19933;-68
2022/06/02 12:20:47;;;;;;;;;;;18.70;34.00;;;;;;5001479;28;20064;-68
2022/06/02 12:23:19;;;;;;;;;;;18.80;34.30;;;;;;5009532;28;19929;-67
2022/06/02 12:25:55;;;;;;;;;;;18.70;35.20;;;;;;5005394;28;19932;-67
2022/06/02 12:28:46;;;;;;;;;;;18.90;34.10;;;;;;5021760;28;19933;-67
2022/06/02 12:31:40;;;;;;;;;;;18.70;33.80;;;;;;5002595;28;20289;-69
2022/06/02 12:34:12;;;;;;;;;;;18.60;34.00;;;;;;4958486;28;19929;-69
2022/06/02 12:36:55;;;;;;;;;;;19.00;32.30;;;;;;5001130;28;19930;-69
2022/06/02 12:39:54;;;;;;;;;;;19.00;31.00;;;;;;5014723;28;20360;-69
2022/06/02 12:42:45;;;;;;;;;;;18.80;31.10;;;;;;5002368;28;19933;-69
2022/06/02 12:45:33;;;;;;;;;;;18.80;30.20;;;;;;5010126;28;19925;-69
2022/06/02 12:48:18;;;;;;;;;;;18.90;30.90;;;;;;4993611;28;19926;-67
2022/06/02 12:50:52;;;;;;;;;;;18.90;29.80;;;;;;5029353;28;19932;-69
2022/06/02 12:53:38;;;;;;;;;;;19.30;29.90;;;;;;5002798;28;19933;-68
2022/06/02 12:56:19;;;;;;;;;;;19.80;28.40;;;;;;4997552;28;20350;-68
2022/06/02 12:59:08;;;;;;;;;;;20.30;28.20;;;;;;5005158;28;19933;-67
2022/06/02 13:01:48;;;;;;;;;;;20.70;26.60;;;;;;5012482;28;19933;-67
2022/06/02 13:04:44;;;;;;;;;;;20.90;25.80;;;;;;5000950;28;19926;-67
2022/06/02 13:07:25;;;;;;;;;;;20.10;27.80;;;;;;5002032;28;19924;-66
2022/06/02 13:09:59;;;;;;;;;;;19.60;26.90;;;;;;5007926;28;20364;-67
2022/06/02 13:12:41;;;;;;;;;;;19.70;26.80;;;;;;5001471;28;19960;-66
2022/06/02 13:15:23;;;;;;;;;;;19.40;26.80;;;;;;4999346;28;19934;-66
2022/06/02 13:18:16;;;;;;;;;;;19.60;27.80;;;;;;4995919;28;19999;-67
2022/06/02 13:20:55;;;;;;;;;;;20.00;27.70;;;;;;5013451;28;19934;-67
2022/06/02 13:23:40;;;;;;;;;;;20.30;25.50;;;;;;5008162;28;20360;-67
2022/06/02 13:26:32;;;;;;;;;;;20.50;25.90;;;;;;4990825;28;20301;-66
2022/06/02 13:29:22;;;;;;;;;;;20.80;24.20;;;;;;4997761;28;19932;-67
2022/06/02 13:32:13;;;;;;;;;;;20.70;23.80;;;;;;5000275;28;19943;-67
2022/06/02 13:35:05;;;;;;;;;;;21.10;22.00;;;;;;4998553;28;19936;-66
2022/06/02 13:38:02;;;;;;;;;;;20.70;22.50;;;;;;5000578;28;19937;-66
2022/06/02 13:40:33;;;;;;;;;;;20.70;21.80;;;;;;4938385;28;19927;-69
2022/06/02 13:43:15;;;;;;;;;;;20.50;23.20;;;;;;4975856;28;19929;-69
2022/06/02 13:46:02;;;;;;;;;;;20.70;22.90;;;;;;5000819;28;20016;-69
2022/06/02 13:48:41;;;;;;;;;;;21.10;22.70;;;;;;4998013;28;19926;-70
2022/06/02 13:51:26;;;;;;;;;;;21.50;21.90;;;;;;5007675;28;20410;-69
2022/06/02 13:59:59;;;;;;;;;;;21.70;21.10;;;;;;4997791;28;20155;-70
2022/06/02 14:02:35;;;;;;;;;;;20.40;21.10;;;;;;4996705;28;19926;-70
2022/06/02 14:05:28;;;;;;;;;;;20.30;21.00;;;;;;5003799;28;19949;-70
2022/06/02 14:08:08;;;;;;;;;;;20.90;21.50;;;;;;4996362;28;19965;-70
2022/06/02 14:10:46;;;;;;;;;;;20.70;20.80;;;;;;5007379;28;20405;-71
2022/06/02 14:13:21;;;;;;;;;;;20.20;20.50;;;;;;4999535;28;19925;-71
2022/06/02 14:15:59;;;;;;;;;;;20.40;22.30;;;;;;5002182;28;19932;-70
2022/06/02 14:18:34;;;;;;;;;;;20.90;21.10;;;;;;5003072;28;19964;-71
2022/06/02 14:21:06;;;;;;;;;;;21.00;21.00;;;;;;5001030;28;20044;-70
2022/06/02 14:23:43;;;;;;;;;;;21.20;21.10;;;;;;5001895;28;19931;-69
2022/06/02 14:26:16;;;;;;;;;;;20.40;21.90;;;;;;4999100;28;19996;-70
2022/06/02 14:29:01;;;;;;;;;;;20.60;20.80;;;;;;5004969;28;19933;-70
2022/06/02 14:31:37;;;;;;;;;;;21.10;21.10;;;;;;5009590;28;19951;-70
2022/06/02 14:34:08;;;;;;;;;;;21.00;20.60;;;;;;5003639;28;19937;-71
2022/06/02 14:36:41;;;;;;;;;;;21.40;20.20;;;;;;4995922;28;21404;-71
2022/06/02 14:39:14;;;;;;;;;;;21.20;19.10;;;;;;5003237;28;20028;-72
2022/06/02 14:41:47;;;;;;;;;;;21.00;20.90;;;;;;5019085;28;19979;-69
2022/06/02 14:44:17;;;;;;;;;;;21.20;20.00;;;;;;5000500;28;19972;-72
2022/06/02 14:46:59;;;;;;;;;;;21.30;20.90;;;;;;4997491;28;19933;-69
2022/06/02 14:49:35;;;;;;;;;;;21.40;20.70;;;;;;4998079;28;19930;-70
2022/06/02 14:52:08;;;;;;;;;;;21.50;20.00;;;;;;4997551;28;19926;-72
2022/06/02 14:54:47;;;;;;;;;;;21.10;21.00;;;;;;5001034;28;19963;-71
2022/06/02 14:57:17;;;;;;;;;;;21.10;21.70;;;;;;4992699;28;19933;-71
2022/06/02 14:59:59;;;;;;;;;;;21.20;20.80;;;;;;4990852;28;19934;-69
2022/06/02 15:02:38;;;;;;;;;;;21.20;20.70;;;;;;5007262;28;20012;-67
2022/06/02 15:05:13;;;;;;;;;;;20.80;19.90;;;;;;5000516;28;19925;-68
2022/06/02 15:07:53;;;;;;;;;;;20.80;19.70;;;;;;5026061;28;20504;-67
2022/06/02 15:12:56;;;;;;;;;;;21.20;19.70;;;;;;5094674;22;20461;-68
2022/06/02 15:15:41;;;;;;;;;;;21.60;21.10;;;;;;5001163;28;20301;-71
2022/06/02 15:18:18;;;;;;;;;;;21.60;18.40;;;;;;5001234;28;20009;-70
2022/06/02 15:20:56;;;;;;;;;;;21.30;19.60;;;;;;5005319;28;20024;-72
2022/06/02 15:23:52;;;;;;;;;;;21.80;18.60;;;;;;5005823;28;19925;-72
2022/06/02 15:26:33;;;;;;;;;;;21.80;19.80;;;;;;5006591;28;19925;-71
2022/06/02 15:29:17;;;;;;;;;;;21.50;18.70;;;;;;5003226;28;19925;-71
2022/06/02 15:31:51;;;;;;;;;;;21.10;20.40;;;;;;5006067;28;19926;-69
2022/06/02 15:34:30;;;;;;;;;;;20.90;20.40;;;;;;5008857;28;19932;-72